createdAt,value
2022-09-23T00:00:17.714Z,67.30
2022-09-23T00:01:19.744Z,67.23
2022-09-23T00:02:22.114Z,66.57
2022-09-23T00:03:23.686Z,66.65
2022-09-23T00:04:25.906Z,67.39
2022-09-23T00:05:28.840Z,67.51
2022-09-23T00:06:30.380Z,68.07
2022-09-23T00:07:31.965Z,68.57
2022-09-23T00:08:33.867Z,69.00
2022-09-23T00:09:35.401Z,69.46
2022-09-23T00:10:39.303Z,69.43
2022-09-23T00:11:40.840Z,69.08
2022-09-23T00:12:42.355Z,68.91
2022-09-23T00:13:46.400Z,68.65
2022-09-23T00:14:47.998Z,69.43
2022-09-23T00:15:50.092Z,69.61
2022-09-23T00:16:51.678Z,69.00
2022-09-23T00:17:53.256Z,68.68
2022-09-23T00:18:54.911Z,68.77
2022-09-23T00:19:56.480Z,67.94
2022-09-23T00:20:58.087Z,68.49
2022-09-23T00:21:59.595Z,68.85
2022-09-23T00:23:01.479Z,68.10
2022-09-23T00:24:03.036Z,67.72
2022-09-23T00:25:06.487Z,67.49
2022-09-23T00:26:10.089Z,67.09
2022-09-23T00:27:11.623Z,67.08
2022-09-23T00:28:13.133Z,67.54
2022-09-23T00:29:16.046Z,67.05
2022-09-23T00:30:18.523Z,67.19
2022-09-23T00:31:23.405Z,66.67
2022-09-23T00:32:25.091Z,65.83
2022-09-23T00:33:26.661Z,65.52
2022-09-23T00:34:28.258Z,65.15
2022-09-23T00:35:29.833Z,65.03
2022-09-23T00:36:32.407Z,65.19
2022-09-23T00:37:34.163Z,65.60
2022-09-23T00:38:35.693Z,66.18
2022-09-23T00:39:37.209Z,66.26
2022-09-23T00:40:43.703Z,65.74
2022-09-23T00:41:45.296Z,65.63
2022-09-23T00:42:51.308Z,66.31
2022-09-23T00:43:56.391Z,66.28
2022-09-23T00:44:59.802Z,66.18
2022-09-23T00:46:01.484Z,65.60
2022-09-23T00:47:03.391Z,65.35
2022-09-23T00:48:06.386Z,64.73
2022-09-23T00:49:23.560Z,65.21
2022-09-23T00:50:30.723Z,65.00
2022-09-23T00:51:37.814Z,65.24
2022-09-23T00:52:39.948Z,65.12
2022-09-23T00:53:42.059Z,64.48
2022-09-23T00:54:46.231Z,64.16
2022-09-23T00:55:54.743Z,64.60
2022-09-23T00:56:57.777Z,64.05
2022-09-23T00:58:02.831Z,64.18
2022-09-23T00:59:05.223Z,64.23
2022-09-23T01:00:07.778Z,64.30
2022-09-23T01:01:09.638Z,64.35
2022-09-23T01:02:14.329Z,64.98
2022-09-23T01:03:16.620Z,64.23
2022-09-23T01:04:19.279Z,64.51
2022-09-23T01:05:21.480Z,64.75
2022-09-23T01:06:23.207Z,64.13
2022-09-23T01:07:24.756Z,64.68
2022-09-23T01:08:27.859Z,64.52
2022-09-23T01:09:29.445Z,64.55
2022-09-23T01:10:41.319Z,63.96
2022-09-23T01:12:01.581Z,64.03
2022-09-23T01:13:03.000Z,63.28
2022-09-23T01:14:07.375Z,63.33
2022-09-23T01:15:11.911Z,64.19
2022-09-23T01:16:18.551Z,64.27
2022-09-23T01:17:35.067Z,64.47
2022-09-23T01:18:53.211Z,63.92
2022-09-23T01:20:13.095Z,64.09
2022-09-23T01:21:43.241Z,63.85
2022-09-23T01:23:16.637Z,63.71
2022-09-23T01:24:45.631Z,63.13
2022-09-23T01:26:08.377Z,63.88
2022-09-23T01:27:30.439Z,63.64
2022-09-23T01:29:27.466Z,63.66
2022-09-23T01:30:51.491Z,62.68
2022-09-23T01:32:13.897Z,63.16
2022-09-23T01:33:24.496Z,63.71
2022-09-23T01:34:42.441Z,64.29
2022-09-23T01:36:00.095Z,64.16
2022-09-23T01:37:34.055Z,64.55
2022-09-23T01:38:59.210Z,64.38
2022-09-23T01:40:07.049Z,64.58
2022-09-23T01:41:31.308Z,63.83
2022-09-23T01:42:41.573Z,64.26
2022-09-23T01:43:54.832Z,64.79
2022-09-23T01:45:15.448Z,64.83
2022-09-23T01:46:24.844Z,66.11
2022-09-23T01:47:39.855Z,67.00
2022-09-23T01:48:55.346Z,67.83
2022-09-23T01:50:25.039Z,67.99
2022-09-23T01:51:35.722Z,68.60
2022-09-23T01:52:44.618Z,68.92
2022-09-23T01:54:09.767Z,69.88
2022-09-23T01:55:19.127Z,71.97
2022-09-23T01:56:26.140Z,72.13
2022-09-23T01:57:37.378Z,72.56
2022-09-23T01:58:49.787Z,72.19
2022-09-23T01:59:57.727Z,73.04
2022-09-23T02:01:02.816Z,71.85
2022-09-23T02:02:15.334Z,71.71
2022-09-23T02:03:26.873Z,71.36
2022-09-23T02:04:39.539Z,71.14
2022-09-23T02:05:58.625Z,72.48
2022-09-23T02:07:08.090Z,72.61
2022-09-23T02:08:25.776Z,72.23
2022-09-23T02:09:35.137Z,73.32
2022-09-23T02:10:41.036Z,73.37
2022-09-23T02:11:48.159Z,73.48
2022-09-23T02:12:53.460Z,73.98
2022-09-23T02:13:55.105Z,73.44
2022-09-23T02:15:00.955Z,73.01
2022-09-23T02:16:10.887Z,72.79
2022-09-23T02:17:18.335Z,72.69
2022-09-23T02:18:24.403Z,73.14
2022-09-23T02:19:43.653Z,71.76
2022-09-23T02:20:47.496Z,70.79
2022-09-23T02:22:08.449Z,71.58
2022-09-23T02:23:17.052Z,70.33
2022-09-23T02:24:29.973Z,69.90
2022-09-23T02:25:40.769Z,69.24
2022-09-23T02:27:03.942Z,69.31
2022-09-23T02:28:27.353Z,68.85
2022-09-23T02:29:50.352Z,69.83
2022-09-23T02:31:08.749Z,70.13
2022-09-23T02:32:28.968Z,70.84
2022-09-23T02:33:37.149Z,70.55
2022-09-23T02:35:10.147Z,71.23
2022-09-23T02:36:50.770Z,72.37
2022-09-23T02:38:25.960Z,73.25
2022-09-23T02:39:37.840Z,73.15
2022-09-23T02:41:11.540Z,73.65
2022-09-23T02:42:20.288Z,73.65
2022-09-23T02:43:35.481Z,74.66
2022-09-23T02:44:37.073Z,75.46
2022-09-23T02:45:39.186Z,76.14
2022-09-23T02:46:43.653Z,76.16
2022-09-23T02:47:52.858Z,76.87
2022-09-23T02:49:00.924Z,77.17
2022-09-23T02:50:02.804Z,77.47
2022-09-23T02:51:04.913Z,78.10
2022-09-23T02:52:07.675Z,78.40
2022-09-23T02:53:10.656Z,78.38
2022-09-23T02:54:16.847Z,78.82
2022-09-23T02:55:22.224Z,78.89
2022-09-23T02:56:24.581Z,77.87
2022-09-23T02:57:26.478Z,77.97
2022-09-23T02:58:29.183Z,77.79
2022-09-23T02:59:31.889Z,76.86
2022-09-23T03:00:45.175Z,76.79
2022-09-23T03:02:14.472Z,76.59
2022-09-23T03:03:29.961Z,75.42
2022-09-23T03:04:57.029Z,75.32
2022-09-23T03:06:05.054Z,75.23
2022-09-23T03:07:21.670Z,75.71
2022-09-23T03:08:40.463Z,76.56
2022-09-23T03:09:52.776Z,75.91
2022-09-23T03:11:05.249Z,75.77
2022-09-23T03:12:36.135Z,77.44
2022-09-23T03:13:58.748Z,79.06
2022-09-23T03:15:22.774Z,78.50
2022-09-23T03:16:40.235Z,78.73
2022-09-23T03:18:31.594Z,79.39
2022-09-23T03:19:54.041Z,78.72
2022-09-23T03:21:03.197Z,79.46
2022-09-23T03:22:13.027Z,78.18
2022-09-23T03:23:18.924Z,78.29
2022-09-23T03:24:23.906Z,78.07
2022-09-23T03:25:28.129Z,77.11
2022-09-23T03:26:36.549Z,76.51
2022-09-23T03:27:42.489Z,77.38
2022-09-23T03:28:45.661Z,77.08
2022-09-23T03:29:49.982Z,77.33
2022-09-23T03:30:53.215Z,76.71
2022-09-23T03:31:57.246Z,77.08
2022-09-23T03:33:00.954Z,76.96
2022-09-23T03:34:09.756Z,76.02
2022-09-23T03:35:13.124Z,75.64
2022-09-23T03:36:37.145Z,75.24
2022-09-23T03:38:11.250Z,74.37
2022-09-23T03:39:17.941Z,73.79
2022-09-23T03:40:28.088Z,72.69
2022-09-23T03:41:37.244Z,73.06
2022-09-23T03:42:39.691Z,73.26
2022-09-23T03:43:41.215Z,73.71
2022-09-23T03:44:45.453Z,73.58
2022-09-23T03:45:47.474Z,74.99
2022-09-23T03:46:52.166Z,75.16
2022-09-23T03:47:53.687Z,76.84
2022-09-23T03:49:27.330Z,77.23
2022-09-23T03:50:29.103Z,77.49
2022-09-23T03:51:30.620Z,78.13
2022-09-23T03:52:32.393Z,78.93
2022-09-23T03:53:33.932Z,79.17
2022-09-23T03:54:35.585Z,79.87
2022-09-23T03:55:39.394Z,80.35
2022-09-23T03:56:41.040Z,80.54
2022-09-23T03:57:43.525Z,81.29
2022-09-23T03:58:46.494Z,81.01
2022-09-23T03:59:50.535Z,80.89
2022-09-23T04:00:54.724Z,80.19
2022-09-23T04:01:59.553Z,80.65
2022-09-23T04:03:01.177Z,81.39
2022-09-23T04:04:02.721Z,81.70
2022-09-23T04:05:05.217Z,81.62
2022-09-23T04:06:06.882Z,81.14
2022-09-23T04:07:08.994Z,80.91
2022-09-23T04:08:10.520Z,80.34
2022-09-23T04:09:12.103Z,80.37
2022-09-23T04:10:13.608Z,79.99
2022-09-23T04:11:15.119Z,80.10
2022-09-23T04:12:17.254Z,80.43
2022-09-23T04:13:18.791Z,79.41
2022-09-23T04:14:21.762Z,80.97
2022-09-23T04:15:23.361Z,81.89
2022-09-23T04:16:25.504Z,82.06
2022-09-23T04:17:27.213Z,80.65
2022-09-23T04:18:28.729Z,78.24
2022-09-23T04:19:30.320Z,77.42
2022-09-23T04:20:31.856Z,76.76
2022-09-23T04:21:33.388Z,75.81
2022-09-23T04:22:35.102Z,74.94
2022-09-23T04:23:36.646Z,74.64
2022-09-23T04:24:38.165Z,74.12
2022-09-23T04:25:49.219Z,73.87
2022-09-23T04:26:53.383Z,73.28
2022-09-23T04:27:54.937Z,73.14
2022-09-23T04:28:56.798Z,73.18
2022-09-23T04:29:58.332Z,72.91
2022-09-23T04:31:03.604Z,72.87
2022-09-23T04:32:05.267Z,73.04
2022-09-23T04:33:06.875Z,72.83
2022-09-23T04:34:09.462Z,72.81
2022-09-23T04:35:11.075Z,72.63
2022-09-23T04:36:12.687Z,72.95
2022-09-23T04:37:14.339Z,71.98
2022-09-23T04:38:15.860Z,72.98
2022-09-23T04:39:18.257Z,72.62
2022-09-23T04:40:19.808Z,73.06
2022-09-23T04:41:21.508Z,72.35
2022-09-23T04:42:23.381Z,72.22
2022-09-23T04:43:24.918Z,72.05
2022-09-23T04:44:28.134Z,72.10
2022-09-23T04:45:30.437Z,71.62
2022-09-23T04:46:32.040Z,70.84
2022-09-23T04:47:33.666Z,71.37
2022-09-23T04:48:39.461Z,71.55
2022-09-23T04:49:41.164Z,71.31
2022-09-23T04:50:42.891Z,72.09
2022-09-23T04:51:45.029Z,71.47
2022-09-23T04:52:46.819Z,70.85
2022-09-23T04:53:50.701Z,71.18
2022-09-23T04:54:52.268Z,72.08
2022-09-23T04:55:53.970Z,72.13
2022-09-23T04:56:55.568Z,71.64
2022-09-23T04:57:57.191Z,72.11
2022-09-23T04:58:58.740Z,72.85
2022-09-23T05:00:01.132Z,72.21
2022-09-23T05:01:33.483Z,71.64
2022-09-23T05:02:35.718Z,71.84
2022-09-23T05:03:37.395Z,71.75
2022-09-23T05:04:39.330Z,70.98
2022-09-23T05:05:40.874Z,71.36
2022-09-23T05:06:45.160Z,71.50
2022-09-23T05:07:48.519Z,69.97
2022-09-23T05:08:54.443Z,69.44
2022-09-23T05:09:56.035Z,68.81
2022-09-23T05:10:58.946Z,70.13
2022-09-23T05:12:00.565Z,70.01
2022-09-23T05:13:02.053Z,70.00
2022-09-23T05:14:03.744Z,69.73
2022-09-23T05:15:05.905Z,70.80
2022-09-23T05:16:11.077Z,71.58
2022-09-23T05:17:12.678Z,70.96
2022-09-23T05:18:17.844Z,70.53
2022-09-23T05:19:21.855Z,70.63
2022-09-23T05:20:23.431Z,70.72
2022-09-23T05:21:27.507Z,70.62
2022-09-23T05:22:29.995Z,70.55
2022-09-23T05:23:31.557Z,70.41
2022-09-23T05:24:33.130Z,69.61
2022-09-23T05:25:38.211Z,69.00
2022-09-23T05:26:40.066Z,68.27
2022-09-23T05:27:42.334Z,67.53
2022-09-23T05:28:44.213Z,66.70
2022-09-23T05:29:46.326Z,67.33
2022-09-23T05:30:47.873Z,67.44
2022-09-23T05:31:49.509Z,66.50
2022-09-23T05:32:51.215Z,64.84
2022-09-23T05:33:57.284Z,65.60
2022-09-23T05:34:58.926Z,65.04
2022-09-23T05:36:01.311Z,63.48
2022-09-23T05:37:03.340Z,63.65
2022-09-23T05:38:04.974Z,62.59
2022-09-23T05:39:07.925Z,63.18
2022-09-23T05:40:10.039Z,62.01
2022-09-23T05:41:13.408Z,62.02
2022-09-23T05:42:18.178Z,62.02
2022-09-23T05:43:19.698Z,60.74
2022-09-23T05:44:21.250Z,61.81
2022-09-23T05:45:26.808Z,60.55
2022-09-23T05:46:30.733Z,60.70
2022-09-23T05:47:32.354Z,60.56
2022-09-23T05:48:35.572Z,59.64
2022-09-23T05:49:58.211Z,60.14
2022-09-23T05:50:59.585Z,60.49
2022-09-23T05:52:02.689Z,60.05
2022-09-23T05:53:04.258Z,60.45
2022-09-23T05:54:06.188Z,60.67
2022-09-23T05:55:08.281Z,60.66
2022-09-23T05:56:09.811Z,60.38
2022-09-23T05:57:11.995Z,59.89
2022-09-23T05:58:13.890Z,59.07
2022-09-23T05:59:15.420Z,59.85
2022-09-23T06:00:17.540Z,59.30
2022-09-23T06:01:21.593Z,59.77
2022-09-23T06:02:23.472Z,60.00
2022-09-23T06:03:26.211Z,59.97
2022-09-23T06:04:27.871Z,60.28
2022-09-23T06:05:31.001Z,60.53
2022-09-23T06:06:36.045Z,60.77
2022-09-23T06:07:38.143Z,61.31
2022-09-23T06:08:39.689Z,62.46
2022-09-23T06:09:42.293Z,62.37
2022-09-23T06:10:47.875Z,62.64
2022-09-23T06:11:51.243Z,62.22
2022-09-23T06:12:52.765Z,62.78
2022-09-23T06:13:55.748Z,62.50
2022-09-23T06:14:57.678Z,61.56
2022-09-23T06:15:59.380Z,61.05
2022-09-23T06:17:00.998Z,61.52
2022-09-23T06:18:02.973Z,61.56
2022-09-23T06:19:07.599Z,61.15
2022-09-23T06:20:09.650Z,60.74
2022-09-23T06:21:17.024Z,60.88
2022-09-23T06:22:18.826Z,60.38
2022-09-23T06:23:23.414Z,59.66
2022-09-23T06:24:31.120Z,59.30
2022-09-23T06:25:34.050Z,59.47
2022-09-23T06:26:37.747Z,59.52
2022-09-23T06:27:39.292Z,59.41
2022-09-23T06:28:43.002Z,59.10
2022-09-23T06:29:44.566Z,59.63
2022-09-23T06:30:46.130Z,58.97
2022-09-23T06:31:49.809Z,58.87
2022-09-23T06:32:52.191Z,58.96
2022-09-23T06:34:05.528Z,58.68
2022-09-23T06:35:23.446Z,58.23
2022-09-23T06:36:40.075Z,56.99
2022-09-23T06:37:44.964Z,57.38
2022-09-23T06:38:49.292Z,57.10
2022-09-23T06:39:50.843Z,57.37
2022-09-23T06:40:54.590Z,56.38
2022-09-23T06:41:56.216Z,55.72
2022-09-23T06:42:59.271Z,55.99
2022-09-23T06:44:01.019Z,55.31
2022-09-23T06:45:02.712Z,56.18
2022-09-23T06:46:06.270Z,54.78
2022-09-23T06:47:07.874Z,55.71
2022-09-23T06:48:09.974Z,55.21
2022-09-23T06:49:12.187Z,54.12
2022-09-23T06:50:13.723Z,53.58
2022-09-23T06:51:19.253Z,55.32
2022-09-23T06:52:21.199Z,56.49
2022-09-23T06:53:25.618Z,56.56
2022-09-23T06:54:28.968Z,56.20
2022-09-23T06:55:31.017Z,57.75
2022-09-23T06:56:37.978Z,58.88
2022-09-23T06:57:40.322Z,57.90
2022-09-23T06:58:41.912Z,57.48
2022-09-23T06:59:43.439Z,57.01
2022-09-23T07:00:45.306Z,56.70
2022-09-23T07:01:48.407Z,56.79
2022-09-23T07:02:50.204Z,57.82
2022-09-23T07:03:51.973Z,56.96
2022-09-23T07:04:57.086Z,56.69
2022-09-23T07:05:59.826Z,56.37
2022-09-23T07:07:01.349Z,56.04
2022-09-23T07:08:03.365Z,56.34
2022-09-23T07:09:07.414Z,54.65
2022-09-23T07:10:09.821Z,53.76
2022-09-23T07:11:13.140Z,53.83
2022-09-23T07:12:14.796Z,53.52
2022-09-23T07:13:16.535Z,53.54
2022-09-23T07:14:18.073Z,55.03
2022-09-23T07:15:19.585Z,56.13
2022-09-23T07:16:21.571Z,55.51
2022-09-23T07:17:24.527Z,55.37
2022-09-23T07:18:27.194Z,54.33
2022-09-23T07:19:28.745Z,55.80
2022-09-23T07:20:30.292Z,55.63
2022-09-23T07:21:32.051Z,55.53
2022-09-23T07:22:33.647Z,54.00
2022-09-23T07:23:35.287Z,54.54
2022-09-23T07:24:37.435Z,55.93
2022-09-23T07:25:41.403Z,56.48
2022-09-23T07:26:45.691Z,56.51
2022-09-23T07:27:48.578Z,56.25
2022-09-23T07:28:55.052Z,55.87
2022-09-23T07:29:57.258Z,55.77
2022-09-23T07:31:07.715Z,54.02
2022-09-23T07:32:14.117Z,53.62
2022-09-23T07:33:28.066Z,53.15
2022-09-23T07:34:32.811Z,53.12
2022-09-23T07:35:38.271Z,52.33
2022-09-23T07:36:40.988Z,52.07
2022-09-23T07:37:42.741Z,52.72
2022-09-23T07:38:46.023Z,52.31
2022-09-23T07:39:47.608Z,52.79
2022-09-23T07:40:49.228Z,52.68
2022-09-23T07:41:51.857Z,52.58
2022-09-23T07:42:55.457Z,52.11
2022-09-23T07:44:00.167Z,52.01
2022-09-23T07:45:02.291Z,50.32
2022-09-23T07:46:14.397Z,51.56
2022-09-23T07:47:17.678Z,52.41
2022-09-23T07:48:19.204Z,52.40
2022-09-23T07:49:20.858Z,51.29
2022-09-23T07:50:22.687Z,51.67
2022-09-23T07:51:36.035Z,50.87
2022-09-23T07:52:39.365Z,50.90
2022-09-23T07:53:40.882Z,50.81
2022-09-23T07:54:42.499Z,50.87
2022-09-23T07:55:52.083Z,50.90
2022-09-23T07:56:53.605Z,50.21
2022-09-23T07:57:55.148Z,51.03
2022-09-23T07:59:00.685Z,52.42
2022-09-23T08:00:03.536Z,54.38
2022-09-23T08:01:07.163Z,53.99
2022-09-23T08:02:10.018Z,54.35
2022-09-23T08:03:11.894Z,55.08
2022-09-23T08:04:23.025Z,54.94
2022-09-23T08:05:25.969Z,55.03
2022-09-23T08:06:27.500Z,55.18
2022-09-23T08:07:29.007Z,54.00
2022-09-23T08:08:30.755Z,54.16
2022-09-23T08:09:35.073Z,55.42
2022-09-23T08:10:36.620Z,53.83
2022-09-23T08:11:41.885Z,54.29
2022-09-23T08:12:44.044Z,53.88
2022-09-23T08:13:45.569Z,53.78
2022-09-23T08:14:47.082Z,52.97
2022-09-23T08:15:53.259Z,53.38
2022-09-23T08:16:56.882Z,53.37
2022-09-23T08:17:59.881Z,51.52
2022-09-23T08:19:02.232Z,50.94
2022-09-23T08:20:04.143Z,50.12
2022-09-23T08:21:05.888Z,50.01
2022-09-23T08:22:07.415Z,50.57
2022-09-23T08:23:09.491Z,50.54
2022-09-23T08:24:19.634Z,50.33
2022-09-23T08:25:22.707Z,50.58
2022-09-23T08:26:24.699Z,49.40
2022-09-23T08:27:28.091Z,50.23
2022-09-23T08:28:30.414Z,49.55
2022-09-23T08:29:31.960Z,48.30
2022-09-23T08:30:33.525Z,48.96
2022-09-23T08:31:35.123Z,48.60
2022-09-23T08:32:36.981Z,50.67
2022-09-23T08:33:38.542Z,49.41
2022-09-23T08:34:40.043Z,48.34
2022-09-23T08:35:41.853Z,48.06
2022-09-23T08:36:43.403Z,47.93
2022-09-23T08:37:45.016Z,49.05
2022-09-23T08:38:46.522Z,49.83
2022-09-23T08:39:48.037Z,50.15
2022-09-23T08:40:50.419Z,49.03
2022-09-23T08:42:03.849Z,49.22
2022-09-23T08:43:26.716Z,48.97
2022-09-23T08:44:32.043Z,47.73
2022-09-23T08:45:36.737Z,49.11
2022-09-23T08:46:46.571Z,49.25
2022-09-23T08:48:18.350Z,47.51
2022-09-23T08:49:33.650Z,47.80
2022-09-23T08:50:48.362Z,48.29
2022-09-23T08:51:51.717Z,47.16
2022-09-23T08:52:59.873Z,49.05
2022-09-23T08:54:01.912Z,49.87
2022-09-23T08:55:04.760Z,48.34
2022-09-23T08:56:17.691Z,46.15
2022-09-23T08:58:23.399Z,45.51
2022-09-23T08:59:35.264Z,45.95
2022-09-23T09:00:43.657Z,45.31
2022-09-23T09:02:02.467Z,45.75
2022-09-23T09:03:22.583Z,45.05
2022-09-23T09:04:35.887Z,45.17
2022-09-23T09:05:37.556Z,44.61
2022-09-23T09:06:52.994Z,44.63
2022-09-23T09:07:58.770Z,44.10
2022-09-23T09:09:06.011Z,43.59
2022-09-23T09:10:24.783Z,43.73
2022-09-23T09:11:40.705Z,43.48
2022-09-23T09:12:49.870Z,43.71
2022-09-23T09:14:19.495Z,43.49
2022-09-23T09:15:29.553Z,43.38
2022-09-23T09:16:59.880Z,43.84
2022-09-23T09:18:19.963Z,43.65
2022-09-23T09:19:38.677Z,44.61
2022-09-23T09:20:57.480Z,44.77
2022-09-23T09:22:11.339Z,44.14
2022-09-23T09:23:31.051Z,44.06
2022-09-23T09:24:35.133Z,43.92
2022-09-23T09:25:49.354Z,44.21
2022-09-23T09:26:52.114Z,44.05
2022-09-23T09:27:55.906Z,43.98
2022-09-23T09:29:11.398Z,43.47
2022-09-23T09:30:25.721Z,44.14
2022-09-23T09:31:39.847Z,43.12
2022-09-23T09:32:48.658Z,43.02
2022-09-23T09:34:02.089Z,43.67
2022-09-23T09:35:23.915Z,42.55
2022-09-23T09:36:44.346Z,42.66
2022-09-23T09:37:48.750Z,43.16
2022-09-23T09:38:51.449Z,43.04
2022-09-23T09:39:53.013Z,42.54
2022-09-23T09:40:58.360Z,42.04
2022-09-23T09:42:00.608Z,42.74
2022-09-23T09:43:05.772Z,42.51
2022-09-23T09:44:19.256Z,41.90
2022-09-23T09:45:37.835Z,41.99
2022-09-23T09:46:52.866Z,42.44
2022-09-23T09:48:03.701Z,42.54
2022-09-23T09:49:25.094Z,43.21
2022-09-23T09:50:53.235Z,43.04
2022-09-23T09:52:25.991Z,42.38
2022-09-23T09:53:32.123Z,42.33
2022-09-23T09:54:33.679Z,42.22
2022-09-23T09:55:36.079Z,42.80
2022-09-23T09:56:37.898Z,42.61
2022-09-23T09:57:44.157Z,41.63
2022-09-23T09:58:53.196Z,41.19
2022-09-23T09:59:54.834Z,40.74
2022-09-23T10:00:57.043Z,40.51
2022-09-23T10:02:22.334Z,40.00
2022-09-23T10:03:33.775Z,40.19
2022-09-23T10:04:35.790Z,40.41
2022-09-23T10:05:46.711Z,40.03
2022-09-23T10:07:04.541Z,41.07
2022-09-23T10:08:23.317Z,42.21
2022-09-23T10:09:33.426Z,40.69
2022-09-23T10:10:35.025Z,40.35
2022-09-23T10:11:37.051Z,39.87
2022-09-23T10:12:46.934Z,39.96
2022-09-23T10:14:01.105Z,39.58
2022-09-23T10:15:02.628Z,40.26
2022-09-23T10:16:04.736Z,39.76
2022-09-23T10:17:08.297Z,39.22
2022-09-23T10:18:27.397Z,40.00
2022-09-23T10:19:29.573Z,40.13
2022-09-23T10:20:38.017Z,40.27
2022-09-23T10:21:39.745Z,39.73
2022-09-23T10:22:42.572Z,39.89
2022-09-23T10:23:46.580Z,39.95
2022-09-23T10:24:50.850Z,40.19
2022-09-23T10:26:05.421Z,40.45
2022-09-23T10:27:11.892Z,40.20
2022-09-23T10:28:38.204Z,40.45
2022-09-23T10:29:49.384Z,40.34
2022-09-23T10:31:13.078Z,40.53
2022-09-23T10:32:28.684Z,40.79
2022-09-23T10:33:31.772Z,40.46
2022-09-23T10:34:34.674Z,40.47
2022-09-23T10:35:36.515Z,40.57
2022-09-23T10:36:42.418Z,40.16
2022-09-23T10:37:56.073Z,40.35
2022-09-23T10:39:20.287Z,39.65
2022-09-23T10:41:01.196Z,39.44
2022-09-23T10:42:40.368Z,39.96
2022-09-23T10:44:17.123Z,40.61
2022-09-23T10:45:57.193Z,40.56
2022-09-23T10:47:14.974Z,39.78
2022-09-23T10:48:41.245Z,39.49
2022-09-23T10:50:09.756Z,40.71
2022-09-23T10:51:47.914Z,39.39
2022-09-23T10:53:00.849Z,39.42
2022-09-23T10:54:33.613Z,39.02
2022-09-23T10:56:03.323Z,38.59
2022-09-23T10:57:40.576Z,39.19
2022-09-23T10:59:06.786Z,39.45
2022-09-23T11:00:46.350Z,39.20
2022-09-23T11:02:13.178Z,39.26
2022-09-23T11:03:32.234Z,39.56
2022-09-23T11:04:55.281Z,39.45
2022-09-23T11:06:18.169Z,39.87
2022-09-23T11:07:37.212Z,39.28
2022-09-23T11:09:03.074Z,39.37
2022-09-23T11:10:28.854Z,38.95
2022-09-23T11:12:01.210Z,38.47
2022-09-23T11:13:36.067Z,38.57
2022-09-23T11:14:56.138Z,38.90
2022-09-23T11:16:28.633Z,38.70
2022-09-23T11:18:15.932Z,39.72
2022-09-23T11:19:56.513Z,38.98
2022-09-23T11:21:06.775Z,38.76
2022-09-23T11:22:32.276Z,38.91
2022-09-23T11:23:46.310Z,39.62
2022-09-23T11:25:08.339Z,38.25
2022-09-23T11:26:32.864Z,37.58
2022-09-23T11:27:34.860Z,37.85
2022-09-23T11:29:02.645Z,37.83
2022-09-23T11:30:20.029Z,37.81
2022-09-23T11:31:27.686Z,37.40
2022-09-23T11:33:05.699Z,37.21
2022-09-23T11:34:31.023Z,37.96
2022-09-23T11:35:45.866Z,37.88
2022-09-23T11:37:17.768Z,37.54
2022-09-23T11:38:21.256Z,38.16
2022-09-23T11:39:29.580Z,37.86
2022-09-23T11:40:34.569Z,37.95
2022-09-23T11:41:39.692Z,38.27
2022-09-23T11:42:58.205Z,37.73
2022-09-23T11:44:10.641Z,37.65
2022-09-23T11:45:20.281Z,36.65
2022-09-23T11:46:37.703Z,37.53
2022-09-23T11:47:54.917Z,37.62
2022-09-23T11:49:09.279Z,37.10
2022-09-23T11:50:29.683Z,37.07
2022-09-23T11:51:38.057Z,36.38
2022-09-23T11:52:46.296Z,37.32
2022-09-23T11:54:02.931Z,37.26
2022-09-23T11:55:24.384Z,38.06
2022-09-23T11:56:35.914Z,38.05
2022-09-23T11:57:53.749Z,38.41
2022-09-23T11:59:04.701Z,37.69
2022-09-23T12:00:12.713Z,37.33
2022-09-23T12:01:34.780Z,37.62
2022-09-23T12:03:09.585Z,37.21
2022-09-23T12:04:31.858Z,36.40
2022-09-23T12:05:44.803Z,36.43
2022-09-23T12:06:52.536Z,36.20
2022-09-23T12:08:04.479Z,35.83
2022-09-23T12:09:40.953Z,37.17
2022-09-23T12:10:50.350Z,36.62
2022-09-23T12:12:26.870Z,36.42
2022-09-23T12:14:13.220Z,36.31
2022-09-23T12:15:20.287Z,36.02
2022-09-23T12:16:53.782Z,35.47
2022-09-23T12:18:07.160Z,36.42
2022-09-23T12:19:28.186Z,36.95
2022-09-23T12:20:35.667Z,36.71
2022-09-23T12:21:58.081Z,36.28
2022-09-23T12:23:27.483Z,36.71
2022-09-23T12:24:47.526Z,36.64
2022-09-23T12:25:57.889Z,36.44
2022-09-23T12:27:06.108Z,35.96
2022-09-23T12:28:15.546Z,36.30
2022-09-23T12:29:17.486Z,36.38
2022-09-23T12:30:22.070Z,35.97
2022-09-23T12:31:33.893Z,36.26
2022-09-23T12:32:38.220Z,36.07
2022-09-23T12:33:39.869Z,35.69
2022-09-23T12:34:48.990Z,35.39
2022-09-23T12:35:53.969Z,35.28
2022-09-23T12:37:03.444Z,35.39
2022-09-23T12:38:13.702Z,34.77
2022-09-23T12:39:20.663Z,35.26
2022-09-23T12:40:31.243Z,34.99
2022-09-23T12:41:37.701Z,34.77
2022-09-23T12:42:46.012Z,34.54
2022-09-23T12:43:56.256Z,35.37
2022-09-23T12:45:19.417Z,35.53
2022-09-23T12:46:25.690Z,34.99
2022-09-23T12:47:28.908Z,35.73
2022-09-23T12:49:00.610Z,35.53
2022-09-23T12:50:02.375Z,35.34
2022-09-23T12:51:03.841Z,35.05
2022-09-23T12:52:17.514Z,35.19
2022-09-23T12:53:34.360Z,34.69
2022-09-23T12:54:36.089Z,35.00
2022-09-23T12:55:41.723Z,34.55
2022-09-23T12:56:55.932Z,34.49
2022-09-23T12:57:57.467Z,34.84
2022-09-23T12:59:01.713Z,34.97
2022-09-23T13:00:18.166Z,34.75
2022-09-23T13:01:25.286Z,35.32
2022-09-23T13:02:31.601Z,34.40
2022-09-23T13:03:51.835Z,34.69
2022-09-23T13:05:44.755Z,33.99
2022-09-23T13:07:05.164Z,34.40
2022-09-23T13:08:15.878Z,34.15
2022-09-23T13:09:24.843Z,34.18
2022-09-23T13:10:32.853Z,34.30
2022-09-23T13:11:40.359Z,34.62
2022-09-23T13:12:43.636Z,35.44
2022-09-23T13:13:46.224Z,34.19
2022-09-23T13:14:52.123Z,34.24
2022-09-23T13:15:55.002Z,34.41
2022-09-23T13:16:58.540Z,34.31
2022-09-23T13:18:18.954Z,34.31
2022-09-23T13:19:26.449Z,34.21
2022-09-23T13:20:38.410Z,34.42
2022-09-23T13:21:42.621Z,34.29
2022-09-23T13:22:51.750Z,34.88
2022-09-23T13:24:28.323Z,35.00
2022-09-23T13:25:33.434Z,35.80
2022-09-23T13:26:36.699Z,35.73
2022-09-23T13:27:41.384Z,35.57
2022-09-23T13:28:58.730Z,35.13
2022-09-23T13:30:26.751Z,35.80
2022-09-23T13:31:28.594Z,34.88
2022-09-23T13:32:34.547Z,34.93
2022-09-23T13:33:46.299Z,35.04
2022-09-23T13:35:15.796Z,34.85
2022-09-23T13:36:19.535Z,35.49
2022-09-23T13:37:24.506Z,35.50
2022-09-23T13:38:29.680Z,34.75
2022-09-23T13:39:31.203Z,35.49
2022-09-23T13:40:33.310Z,35.85
2022-09-23T13:41:36.164Z,36.16
2022-09-23T13:42:40.642Z,36.18
2022-09-23T13:43:51.910Z,36.78
2022-09-23T13:45:00.403Z,36.16
2022-09-23T13:46:05.228Z,36.21
2022-09-23T13:47:12.347Z,36.52
2022-09-23T13:48:15.456Z,36.38
2022-09-23T13:49:24.605Z,36.62
2022-09-23T13:50:26.564Z,36.87
2022-09-23T13:51:35.008Z,37.40
2022-09-23T13:52:36.562Z,36.93
2022-09-23T13:53:38.397Z,36.81
2022-09-23T13:54:49.630Z,37.30
2022-09-23T13:56:07.793Z,36.79
2022-09-23T13:57:32.271Z,37.14
2022-09-23T13:58:35.591Z,37.18
2022-09-23T13:59:38.668Z,36.08
2022-09-23T14:00:41.077Z,36.60
2022-09-23T14:01:42.625Z,36.31
2022-09-23T14:02:46.975Z,36.50
2022-09-23T14:03:48.625Z,36.24
2022-09-23T14:04:50.882Z,36.46
2022-09-23T14:05:54.410Z,36.47
2022-09-23T14:06:56.391Z,36.38
2022-09-23T14:07:58.076Z,36.99
2022-09-23T14:09:01.485Z,36.11
2022-09-23T14:10:06.143Z,36.31
2022-09-23T14:11:07.856Z,36.04
2022-09-23T14:12:10.306Z,36.30
2022-09-23T14:13:28.158Z,36.64
2022-09-23T14:14:30.773Z,36.90
2022-09-23T14:15:36.946Z,37.03
2022-09-23T14:16:40.742Z,36.84
2022-09-23T14:17:50.161Z,36.59
2022-09-23T14:18:56.139Z,36.22
2022-09-23T14:19:57.713Z,36.68
2022-09-23T14:20:59.287Z,37.16
2022-09-23T14:22:01.051Z,36.85
2022-09-23T14:23:07.622Z,36.78
2022-09-23T14:24:30.401Z,36.84
2022-09-23T14:25:33.141Z,37.30
2022-09-23T14:26:34.740Z,37.12
2022-09-23T14:27:36.573Z,37.09
2022-09-23T14:28:38.241Z,36.68
2022-09-23T14:29:42.329Z,36.79
2022-09-23T14:30:46.275Z,36.58
2022-09-23T14:31:57.242Z,36.42
2022-09-23T14:32:59.481Z,36.46
2022-09-23T14:34:01.018Z,36.81
2022-09-23T14:35:06.655Z,37.13
2022-09-23T14:36:30.982Z,37.33
2022-09-23T14:37:57.003Z,36.79
2022-09-23T14:39:11.179Z,36.71
2022-09-23T14:40:20.706Z,36.79
2022-09-23T14:41:25.324Z,38.69
2022-09-23T14:42:42.743Z,37.55
2022-09-23T14:44:03.276Z,37.63
2022-09-23T14:45:05.707Z,37.08